Time;durP1;ratioP1;P1;durP2;ratioP2;P2;SDS_P1;SDS_P2;PMS_P1;PMS_P2;Temp;Humidity;BMP_temperature;BMP_pressure;BME280_temperature;BME280_humidity;BME280_pressure;Samples;Min_cycle;Max_cycle;Signal;HPM_P1;HPM_P2
2021/07/27 00:00:38;;;;;;;19.47;14.27;;;;;;;21.70;100.00;99986.62;713759;1200;116102;-77
2021/07/27 00:15:50;;;;;;;18.53;15.13;;;;;;;21.37;100.00;99995.61;713845;1200;114735;-75
2021/07/27 00:30:53;;;;;;;19.53;15.77;;;;;;;21.34;100.00;99976.53;713845;1200;115552;-75
2021/07/27 00:45:55;;;;;;;18.75;14.70;;;;;;;21.19;100.00;99964.30;713902;1200;116136;-76
2021/07/27 01:00:58;;;;;;;19.55;15.15;;;;;;;21.03;100.00;99954.94;713854;1205;114504;-75
2021/07/27 01:16:06;;;;;;;21.93;15.93;;;;;;;20.67;100.00;99945.63;713804;1202;115856;-75
2021/07/27 01:46:36;;;;;;;21.25;16.28;;;;;;;20.51;100.00;99986.03;713635;1200;115283;-76
2021/07/27 02:01:40;;;;;;;22.37;17.17;;;;;;;20.41;100.00;99976.63;713943;1205;114455;-76
2021/07/27 02:16:42;;;;;;;24.23;16.30;;;;;;;20.45;100.00;99961.89;714002;1202;114403;-76
2021/07/27 02:31:44;;;;;;;23.18;18.73;;;;;;;20.48;100.00;99965.14;713954;1200;114434;-75
2021/07/27 02:46:46;;;;;;;23.15;17.83;;;;;;;20.36;100.00;99955.11;713661;1200;114221;-76
2021/07/27 03:01:49;;;;;;;24.40;18.35;;;;;;;20.17;100.00;99980.76;714779;1200;115134;-76
2021/07/27 03:16:55;;;;;;;27.30;19.08;;;;;;;20.21;100.00;99962.53;714504;1202;114932;-75
2021/07/27 03:31:59;;;;;;;23.40;17.80;;;;;;;20.05;100.00;99980.55;713827;1200;115070;-76
2021/07/27 03:47:04;;;;;;;26.08;19.25;;;;;;;20.08;100.00;99974.81;713546;1200;115428;-77
2021/07/27 04:02:07;;;;;;;26.40;18.63;;;;;;;20.17;100.00;99972.77;714905;1205;115492;-76
2021/07/27 04:17:09;;;;;;;31.43;20.60;;;;;;;20.47;100.00;99959.02;714266;1202;114767;-77
2021/07/27 04:32:12;;;;;;;28.68;19.35;;;;;;;20.73;100.00;99957.31;714034;1200;116050;-75
2021/07/27 04:47:14;;;;;;;26.75;19.50;;;;;;;21.08;100.00;99959.66;714052;1200;115871;-73
2021/07/27 05:02:21;;;;;;;26.43;19.53;;;;;;;21.40;100.00;99965.02;714020;1200;115647;-74
2021/07/27 05:17:23;;;;;;;25.87;19.83;;;;;;;21.73;100.00;99959.48;713906;1202;116068;-74
2021/07/27 05:32:27;;;;;;;26.33;19.98;;;;;;;22.27;100.00;99951.83;713990;1205;114671;-75
2021/07/27 05:47:29;;;;;;;25.83;20.20;;;;;;;22.71;100.00;99951.84;713964;1202;115674;-74
2021/07/27 06:02:32;;;;;;;25.28;19.75;;;;;;;23.34;100.00;99941.78;714210;1200;114943;-74
2021/07/27 06:17:34;;;;;;;24.97;19.40;;;;;;;23.59;100.00;99951.52;714616;1193;114900;-74
2021/07/27 06:32:37;;;;;;;23.58;17.95;;;;;;;24.00;100.00;99965.92;714414;1200;115723;-74
2021/07/27 06:47:39;;;;;;;25.10;20.10;;;;;;;24.24;100.00;99969.44;714513;1200;114991;-74
2021/07/27 07:02:41;;;;;;;25.80;20.03;;;;;;;24.39;100.00;99981.55;714426;1177;114766;-75
2021/07/27 07:17:43;;;;;;;31.23;20.73;;;;;;;25.03;100.00;99978.06;714508;1200;115060;-78
2021/07/27 07:32:47;;;;;;;26.63;18.78;;;;;;;26.11;100.00;100006.05;714659;1177;114725;-84
2021/07/27 07:47:49;;;;;;;24.28;17.83;;;;;;;26.40;100.00;100012.92;715529;1200;114856;-82
2021/07/27 08:02:52;;;;;;;23.13;17.23;;;;;;;26.18;100.00;100007.48;716167;1177;114496;-83
2021/07/27 08:17:54;;;;;;;19.83;16.03;;;;;;;26.27;100.00;100021.34;717599;1177;114518;-80
2021/07/27 08:32:56;;;;;;;19.53;16.17;;;;;;;26.22;100.00;100045.45;715972;1177;114837;-81
2021/07/27 08:48:00;;;;;;;25.53;18.13;;;;;;;26.20;100.00;100050.27;716005;1177;115032;-80
2021/07/27 09:03:17;;;;;;;25.93;19.13;;;;;;;27.57;100.00;100032.70;716165;1205;114403;-79
2021/07/27 09:18:21;;;;;;;22.35;18.40;;;;;;;27.37;100.00;100046.72;716107;1177;114933;-83
2021/07/27 09:33:35;;;;;;;23.63;18.28;;;;;;;27.95;96.57;100016.58;715200;1202;115459;-79
2021/07/27 09:48:41;;;;;;;19.70;16.73;;;;;;;28.95;92.31;99996.98;714494;1200;115741;-79
2021/07/27 10:04:03;;;;;;;18.80;14.40;;;;;;;30.28;85.74;99989.30;714425;1177;114760;-81
2021/07/27 10:19:33;;;;;;;16.78;14.88;;;;;;;30.58;79.92;99991.13;714642;1202;114827;-81
2021/07/27 10:34:35;;;;;;;16.03;13.88;;;;;;;30.64;78.54;100000.83;714167;1200;115501;-81
2021/07/27 10:49:38;;;;;;;15.60;13.00;;;;;;;31.28;77.62;100011.94;714300;1203;114693;-76
2021/07/27 11:04:41;;;;;;;14.20;12.40;;;;;;;31.40;75.81;100008.88;729910;1200;114825;-76
2021/07/27 11:19:46;;;;;;;11.93;10.45;;;;;;;31.82;73.41;100009.40;714636;1200;114228;-76
2021/07/27 11:34:56;;;;;;;16.13;12.58;;;;;;;31.82;70.90;100003.97;714302;1202;114352;-79
2021/07/27 11:49:58;;;;;;;11.60;10.37;;;;;;;32.45;69.31;99997.68;713797;1202;114809;-76
2021/07/27 12:05:01;;;;;;;11.55;10.13;;;;;;;31.91;68.22;99994.13;715137;1203;114040;-79
2021/07/27 12:20:04;;;;;;;12.80;9.57;;;;;;;32.69;65.95;99999.58;716470;1176;114102;-79
2021/07/27 12:35:07;;;;;;;13.20;9.13;;;;;;;32.55;65.22;99982.41;716428;1202;115261;-79
2021/07/27 12:50:09;;;;;;;10.98;9.23;;;;;;;31.90;65.48;99978.98;717288;1200;114045;-79
2021/07/27 13:05:12;;;;;;;11.83;8.55;;;;;;;32.59;64.81;99972.58;716534;1202;115054;-79
2021/07/27 13:20:14;;;;;;;11.88;8.23;;;;;;;32.28;63.98;99949.33;715751;1178;113881;-80
2021/07/27 13:35:17;;;;;;;8.47;7.00;;;;;;;33.11;63.60;99940.92;717009;1200;115000;-80
2021/07/27 13:50:19;;;;;;;8.45;6.93;;;;;;;32.75;62.91;99932.50;716444;1177;113808;-80
2021/07/27 14:05:22;;;;;;;7.93;6.33;;;;;;;33.41;62.07;99919.05;715673;1200;114026;-81
2021/07/27 14:20:25;;;;;;;7.85;5.25;;;;;;;33.42;59.53;99913.30;715738;1200;114840;-77
2021/07/27 14:35:27;;;;;;;6.80;5.78;;;;;;;33.08;59.56;99918.98;714373;1203;113865;-81
2021/07/27 14:50:30;;;;;;;9.17;7.70;;;;;;;33.50;58.35;99903.66;724686;1200;112891;-85
2021/07/27 15:05:32;;;;;;;5.08;4.58;;;;;;;32.51;59.04;99906.97;725395;1199;114945;-86
2021/07/27 15:20:35;;;;;;;15.20;5.18;;;;;;;32.03;59.39;99902.36;720621;1200;113929;-87
2021/07/27 15:35:38;;;;;;;7.45;4.25;;;;;;;32.43;58.49;99910.34;720809;1199;114049;-86
2021/07/27 15:50:40;;;;;;;5.08;3.93;;;;;;;32.75;57.01;99910.77;717422;1200;113879;-86
2021/07/27 16:05:42;;;;;;;5.33;3.38;;;;;;;32.08;57.21;99930.52;716413;1202;114421;-83
2021/07/27 16:20:45;;;;;;;7.13;3.60;;;;;;;31.85;57.89;99925.59;716382;1202;113913;-83
2021/07/27 16:35:47;;;;;;;5.85;3.95;;;;;;;31.69;58.49;99916.00;715875;1203;114193;-83
2021/07/27 16:50:50;;;;;;;7.65;3.85;;;;;;;31.40;59.46;99924.06;715938;1176;114240;-85
2021/07/27 17:05:53;;;;;;;5.03;4.15;;;;;;;31.02;60.41;99908.34;716300;1199;115085;-85
2021/07/27 17:20:55;;;;;;;5.78;3.95;;;;;;;30.34;60.90;99912.44;716908;1200;113973;-85
2021/07/27 17:36:01;;;;;;;21.10;12.45;;;;;;;29.62;62.81;99918.79;716167;1200;114940;-85
2021/07/27 17:51:03;;;;;;;45.00;26.45;;;;;;;29.14;64.31;99912.79;716262;1199;115133;-83
2021/07/27 18:06:09;;;;;;;54.43;32.37;;;;;;;28.53;65.97;99915.05;717067;1202;114317;-83
2021/07/27 18:21:12;;;;;;;16.93;8.40;;;;;;;28.12;67.28;99908.64;716157;1202;114852;-83
2021/07/27 18:36:14;;;;;;;15.87;10.50;;;;;;;27.98;70.14;99910.94;716355;1202;114853;-82
2021/07/27 18:51:16;;;;;;;25.20;16.20;;;;;;;27.86;71.65;99911.97;716527;1200;114331;-81
2021/07/27 19:06:19;;;;;;;14.05;7.53;;;;;;;27.46;74.45;99923.23;715710;1204;114214;-82
2021/07/27 19:21:22;;;;;;;12.63;5.98;;;;;;;26.62;76.95;99942.23;715328;1176;113979;-80
2021/07/27 19:36:24;;;;;;;21.28;10.98;;;;;;;26.23;82.74;99961.88;715405;1177;114860;-82
2021/07/27 19:51:26;;;;;;;11.18;6.35;;;;;;;26.02;81.90;99963.41;715490;1205;114867;-81
2021/07/27 20:06:28;;;;;;;12.10;5.97;;;;;;;25.82;81.69;99965.80;715662;1200;114179;-79
2021/07/27 20:21:31;;;;;;;8.35;5.85;;;;;;;25.46;81.43;99981.29;716086;1204;114668;-82
2021/07/27 20:36:35;;;;;;;10.58;5.80;;;;;;;25.19;82.99;99993.39;715753;1200;114197;-83
2021/07/27 20:51:37;;;;;;;12.38;7.35;;;;;;;24.84;85.09;100009.63;715874;1184;114098;-82
2021/07/27 21:06:40;;;;;;;29.70;16.13;;;;;;;24.49;88.95;100021.16;715764;1200;114590;-81
2021/07/27 21:21:42;;;;;;;28.07;16.13;;;;;;;24.28;91.08;100028.72;715496;1202;114731;-81
2021/07/27 21:36:44;;;;;;;26.75;16.90;;;;;;;24.06;94.02;100042.69;715683;1202;116005;-80
2021/07/27 21:51:46;;;;;;;21.87;15.53;;;;;;;23.57;95.72;100047.28;715969;1177;114882;-81
2021/07/27 22:06:49;;;;;;;23.30;17.40;;;;;;;22.99;98.71;100056.61;715858;1203;115065;-81
2021/07/27 22:21:51;;;;;;;27.57;16.13;;;;;;;22.55;100.00;100059.32;719654;1177;114320;-80
2021/07/27 22:36:53;;;;;;;19.67;14.53;;;;;;;22.23;100.00;100056.69;717102;1200;114641;-81
2021/07/27 22:51:57;;;;;;;21.35;14.63;;;;;;;21.94;100.00;100048.27;717287;1178;114268;-81
2021/07/27 23:06:59;;;;;;;23.78;15.08;;;;;;;21.84;100.00;100037.24;717006;1199;114326;-81
2021/07/27 23:22:07;;;;;;;22.63;15.53;;;;;;;21.60;100.00;100031.63;716127;1200;114499;-82
2021/07/27 23:37:11;;;;;;;24.90;16.50;;;;;;;21.32;100.00;100037.30;722513;1177;114567;-83
2021/07/27 23:52:17;;;;;;;21.38;15.13;;;;;;;21.18;100.00;100042.70;717726;1177;114601;-81
